createdAt,value
2023-04-20T00:00:56.657Z,8.20
2023-04-20T00:03:24.644Z,8.20
2023-04-20T00:05:52.561Z,8.20
2023-04-20T00:08:20.746Z,8.30
2023-04-20T00:10:48.545Z,8.20
2023-04-20T00:13:16.326Z,8.20
2023-04-20T00:15:45.673Z,8.20
2023-04-20T00:18:13.511Z,8.30
2023-04-20T00:20:41.320Z,8.20
2023-04-20T00:23:09.121Z,8.20
2023-04-20T00:25:36.882Z,8.20
2023-04-20T00:28:05.084Z,8.30
2023-04-20T00:30:33.119Z,8.20
2023-04-20T00:33:03.720Z,8.20
2023-04-20T00:35:31.640Z,8.20
2023-04-20T00:37:59.425Z,8.20
2023-04-20T00:40:27.206Z,8.20
2023-04-20T00:42:55.006Z,8.10
2023-04-20T00:45:23.056Z,8.20
2023-04-20T00:47:51.785Z,8.20
2023-04-20T00:50:21.075Z,8.10
2023-04-20T00:52:49.046Z,8.20
2023-04-20T00:55:16.824Z,8.20
2023-04-20T00:57:45.513Z,8.10
2023-04-20T01:00:14.141Z,8.00
2023-04-20T01:02:42.142Z,8.10
2023-04-20T01:05:10.529Z,8.10
2023-04-20T01:07:39.616Z,8.00
2023-04-20T01:10:09.161Z,8.00
2023-04-20T01:12:37.407Z,8.00
2023-04-20T01:15:06.746Z,7.90
2023-04-20T01:17:34.777Z,8.00
2023-04-20T01:20:02.619Z,8.10
2023-04-20T01:22:31.770Z,8.20
2023-04-20T01:24:59.531Z,8.10
2023-04-20T01:27:27.268Z,8.10
2023-04-20T01:29:55.044Z,8.00
2023-04-20T01:32:22.912Z,8.00
2023-04-20T01:34:50.753Z,8.00
2023-04-20T01:37:18.583Z,8.00
2023-04-20T01:39:47.738Z,7.90
2023-04-20T01:42:15.573Z,7.90
2023-04-20T01:44:43.380Z,7.80
2023-04-20T01:47:11.177Z,7.70
2023-04-20T01:49:38.967Z,7.80
2023-04-20T01:52:06.884Z,7.80
2023-04-20T01:54:34.656Z,7.70
2023-04-20T01:57:03.776Z,7.50
2023-04-20T01:59:31.554Z,7.50
2023-04-20T02:01:59.451Z,7.60
2023-04-20T02:04:27.287Z,7.60
2023-04-20T02:06:55.308Z,7.60
2023-04-20T02:09:23.082Z,7.60
2023-04-20T02:11:51.067Z,7.60
2023-04-20T02:14:20.233Z,7.70
2023-04-20T02:16:48.031Z,7.50
2023-04-20T02:19:16.089Z,7.40
2023-04-20T02:21:44.032Z,7.50
2023-04-20T02:24:11.893Z,7.40
2023-04-20T02:26:39.665Z,7.20
2023-04-20T02:29:07.439Z,7.10
2023-04-20T02:31:36.616Z,7.00
2023-04-20T02:34:06.030Z,7.00
2023-04-20T02:36:33.827Z,7.00
2023-04-20T02:39:01.601Z,7.00
2023-04-20T02:41:29.429Z,7.00
2023-04-20T02:43:57.174Z,7.10
2023-04-20T02:46:25.060Z,7.30
2023-04-20T02:48:55.453Z,7.30
2023-04-20T02:51:23.254Z,7.30
2023-04-20T02:53:51.081Z,7.30
2023-04-20T02:56:18.949Z,7.20
2023-04-20T02:58:48.451Z,7.10
2023-04-20T03:01:16.533Z,7.20
2023-04-20T03:03:44.521Z,7.00
2023-04-20T03:06:13.769Z,7.00
2023-04-20T03:08:42.034Z,6.90
2023-04-20T03:11:09.814Z,6.90
2023-04-20T03:13:37.589Z,7.10
2023-04-20T03:16:07.071Z,7.00
2023-04-20T03:18:34.917Z,6.90
2023-04-20T03:21:02.658Z,6.90
2023-04-20T03:23:31.807Z,7.10
2023-04-20T03:25:59.612Z,7.20
2023-04-20T03:28:27.637Z,7.20
2023-04-20T03:30:55.537Z,7.10
2023-04-20T03:33:23.317Z,7.00
2023-04-20T03:35:51.097Z,6.90
2023-04-20T03:38:18.863Z,6.80
2023-04-20T03:40:48.004Z,6.80
2023-04-20T03:43:16.054Z,6.90
2023-04-20T03:45:43.919Z,6.80
2023-04-20T03:48:11.722Z,6.80
2023-04-20T03:50:39.491Z,6.80
2023-04-20T03:53:07.281Z,6.80
2023-04-20T03:55:35.108Z,6.80
2023-04-20T03:58:04.652Z,6.70
2023-04-20T04:00:32.433Z,6.70
2023-04-20T04:03:00.665Z,6.70
2023-04-20T04:05:29.204Z,6.60
2023-04-20T04:07:57.096Z,6.80
2023-04-20T04:10:24.888Z,6.90
2023-04-20T04:12:52.695Z,6.90
2023-04-20T04:15:21.923Z,7.00
2023-04-20T04:17:49.929Z,7.00
2023-04-20T04:20:17.865Z,7.00
2023-04-20T04:22:45.647Z,7.00
2023-04-20T04:25:15.023Z,7.00
2023-04-20T04:27:42.798Z,6.90
2023-04-20T04:30:12.031Z,6.90
2023-04-20T04:32:41.420Z,6.90
2023-04-20T04:35:11.245Z,6.80
2023-04-20T04:37:39.017Z,6.70
2023-04-20T04:40:08.803Z,6.70
2023-04-20T04:42:36.984Z,6.70
2023-04-20T04:45:05.587Z,6.50
2023-04-20T04:47:36.177Z,6.60
2023-04-20T04:50:06.206Z,6.60
2023-04-20T04:52:34.488Z,6.60
2023-04-20T04:55:02.657Z,6.60
2023-04-20T04:57:30.476Z,6.70
2023-04-20T04:59:58.259Z,6.70
2023-04-20T05:02:26.276Z,6.70
2023-04-20T05:04:54.321Z,6.60
2023-04-20T05:07:24.720Z,6.70
2023-04-20T05:09:52.622Z,6.80
2023-04-20T05:12:20.539Z,6.80
2023-04-20T05:14:48.312Z,6.90
2023-04-20T05:17:16.176Z,6.80
2023-04-20T05:19:43.969Z,6.80
2023-04-20T05:22:11.825Z,6.70
2023-04-20T05:24:41.045Z,6.70
2023-04-20T05:27:08.821Z,6.90
2023-04-20T05:29:37.341Z,6.90
2023-04-20T05:32:05.392Z,6.90
2023-04-20T05:34:33.914Z,6.80
2023-04-20T05:37:04.730Z,6.80
2023-04-20T05:39:32.572Z,6.70
2023-04-20T05:42:01.913Z,6.70
2023-04-20T05:44:29.709Z,6.70
2023-04-20T05:46:57.488Z,6.70
2023-04-20T05:49:25.342Z,6.60
2023-04-20T05:51:53.088Z,6.60
2023-04-20T05:54:20.859Z,6.60
2023-04-20T05:56:48.642Z,6.60
2023-04-20T05:59:18.663Z,6.60
2023-04-20T06:01:46.575Z,6.50
2023-04-20T06:04:14.490Z,6.50
2023-04-20T06:06:42.436Z,6.50
2023-04-20T06:09:10.278Z,6.60
2023-04-20T06:11:38.029Z,6.50
2023-04-20T06:14:05.916Z,6.50
2023-04-20T06:16:35.085Z,6.50
2023-04-20T06:19:02.958Z,6.50
2023-04-20T06:21:31.004Z,6.50
2023-04-20T06:23:58.799Z,6.60
2023-04-20T06:26:26.672Z,6.60
2023-04-20T06:28:54.437Z,6.60
2023-04-20T06:31:22.306Z,6.80
2023-04-20T06:33:51.456Z,6.80
2023-04-20T06:36:19.265Z,6.90
2023-04-20T06:38:47.053Z,6.90
2023-04-20T06:41:15.425Z,6.90
2023-04-20T06:43:45.281Z,7.00
2023-04-20T06:46:13.127Z,7.00
2023-04-20T06:48:40.931Z,6.90
2023-04-20T06:51:10.212Z,7.00
2023-04-20T06:53:37.976Z,6.90
2023-04-20T06:56:06.634Z,7.00
2023-04-20T06:58:34.470Z,6.90
2023-04-20T07:01:02.841Z,6.90
2023-04-20T07:03:30.729Z,6.90
2023-04-20T07:05:58.582Z,6.80
2023-04-20T07:08:27.769Z,6.90
2023-04-20T07:10:55.517Z,6.90
2023-04-20T07:13:23.477Z,7.00
2023-04-20T07:15:51.626Z,7.10
2023-04-20T07:18:19.441Z,7.10
2023-04-20T07:20:47.204Z,7.10
2023-04-20T07:23:15.000Z,7.00
2023-04-20T07:25:44.121Z,7.10
2023-04-20T07:28:11.904Z,7.00
2023-04-20T07:30:39.706Z,7.00
2023-04-20T07:33:08.301Z,7.00
2023-04-20T07:35:36.155Z,7.00
2023-04-20T07:38:03.968Z,7.00
2023-04-20T07:40:31.776Z,7.00
2023-04-20T07:43:00.948Z,7.10
2023-04-20T07:45:28.861Z,7.10
2023-04-20T07:47:57.391Z,7.20
2023-04-20T07:50:25.517Z,7.30
2023-04-20T07:52:53.390Z,7.30
2023-04-20T07:55:21.353Z,7.40
2023-04-20T07:57:49.165Z,7.50
2023-04-20T08:00:19.601Z,7.60
2023-04-20T08:02:47.619Z,7.60
2023-04-20T08:05:16.068Z,7.60
2023-04-20T08:07:43.989Z,7.50
2023-04-20T08:10:12.248Z,7.50
2023-04-20T08:12:40.564Z,7.60
2023-04-20T08:15:10.050Z,7.70
2023-04-20T08:17:39.339Z,7.70
2023-04-20T08:20:10.631Z,7.80
2023-04-20T08:22:39.305Z,7.80
2023-04-20T08:25:07.577Z,7.80
2023-04-20T08:27:35.460Z,7.80
2023-04-20T08:30:04.466Z,7.80
2023-04-20T08:32:32.348Z,7.80
2023-04-20T08:35:01.543Z,7.80
2023-04-20T08:37:32.061Z,7.80
2023-04-20T08:40:00.636Z,7.90
2023-04-20T08:42:29.248Z,8.00
2023-04-20T08:44:58.356Z,8.10
2023-04-20T08:47:28.815Z,8.10
2023-04-20T08:49:57.694Z,8.10
2023-04-20T08:52:26.804Z,8.10
2023-04-20T08:54:57.243Z,8.00
2023-04-20T08:57:26.022Z,8.10
2023-04-20T08:59:53.875Z,8.10
2023-04-20T09:02:21.906Z,8.20
2023-04-20T09:04:49.920Z,8.20
2023-04-20T09:07:19.812Z,8.10
2023-04-20T09:09:58.864Z,8.20
2023-04-20T09:12:27.080Z,8.30
2023-04-20T09:14:56.341Z,8.30
2023-04-20T09:17:33.828Z,8.20
2023-04-20T09:20:01.701Z,8.20
2023-04-20T09:22:33.764Z,8.20
2023-04-20T09:25:13.819Z,8.30
2023-04-20T09:27:41.697Z,8.40
2023-04-20T09:30:10.474Z,8.50
2023-04-20T09:32:38.276Z,8.70
2023-04-20T09:35:07.583Z,8.70
2023-04-20T09:37:35.403Z,8.80
2023-04-20T09:40:06.189Z,8.80
2023-04-20T09:42:37.970Z,9.00
2023-04-20T09:45:06.774Z,9.20
2023-04-20T09:47:36.774Z,9.40
2023-04-20T09:50:19.469Z,9.60
2023-04-20T09:52:54.289Z,9.80
2023-04-20T09:55:26.232Z,9.90
2023-04-20T09:57:55.381Z,9.80
2023-04-20T10:00:23.829Z,9.90
2023-04-20T10:02:52.384Z,10.50
2023-04-20T10:05:20.514Z,11.00
2023-04-20T10:07:48.415Z,11.30
2023-04-20T10:10:17.272Z,11.70
2023-04-20T10:12:50.357Z,11.60
2023-04-20T10:15:18.727Z,11.50
2023-04-20T10:17:46.694Z,11.20
2023-04-20T10:20:22.764Z,11.10
2023-04-20T10:22:52.262Z,11.00
2023-04-20T10:25:21.459Z,10.90
2023-04-20T10:27:58.953Z,10.90
2023-04-20T10:30:27.783Z,10.80
2023-04-20T10:33:07.222Z,10.70
2023-04-20T10:35:47.929Z,10.80
2023-04-20T10:38:16.429Z,10.90
2023-04-20T10:40:44.249Z,11.20
2023-04-20T10:43:23.223Z,11.20
2023-04-20T10:45:51.985Z,11.20
2023-04-20T10:48:19.880Z,11.10
2023-04-20T10:50:47.896Z,11.00
2023-04-20T10:53:20.620Z,10.80
2023-04-20T10:55:51.434Z,10.70
2023-04-20T10:58:24.521Z,11.00
2023-04-20T11:00:59.592Z,11.10
2023-04-20T11:03:30.142Z,11.00
2023-04-20T11:06:01.218Z,11.10
2023-04-20T11:08:40.299Z,11.10
2023-04-20T11:11:19.373Z,11.20
2023-04-20T11:13:49.262Z,10.90
2023-04-20T11:16:18.868Z,10.80
2023-04-20T11:18:51.887Z,10.60
2023-04-20T11:21:19.955Z,10.50
2023-04-20T11:23:48.172Z,10.50
2023-04-20T11:26:16.811Z,10.60
2023-04-20T11:28:56.616Z,10.50
2023-04-20T11:31:26.339Z,10.60
2023-04-20T11:33:54.225Z,10.50
2023-04-20T11:36:23.029Z,10.40
2023-04-20T11:38:51.026Z,10.50
2023-04-20T11:41:19.322Z,10.50
2023-04-20T11:43:48.796Z,10.40
2023-04-20T11:46:19.690Z,10.30
2023-04-20T11:48:48.008Z,10.40
2023-04-20T11:51:16.132Z,10.30
2023-04-20T11:53:43.988Z,10.40
2023-04-20T11:56:11.803Z,10.30
2023-04-20T11:58:39.568Z,10.30
2023-04-20T12:01:07.347Z,10.30
2023-04-20T12:03:36.972Z,10.40
2023-04-20T12:06:05.165Z,10.40
2023-04-20T12:08:32.955Z,10.40
2023-04-20T12:11:00.736Z,10.60
2023-04-20T12:13:28.559Z,10.80
2023-04-20T12:15:56.462Z,10.60
2023-04-20T12:18:24.360Z,10.60
2023-04-20T12:20:53.500Z,10.80
2023-04-20T12:23:21.295Z,10.80
2023-04-20T12:25:49.393Z,10.70
2023-04-20T12:28:17.215Z,10.80
2023-04-20T12:30:45.034Z,11.00
2023-04-20T12:33:12.900Z,11.00
2023-04-20T12:35:40.988Z,11.10
2023-04-20T12:38:11.722Z,11.20
2023-04-20T12:40:40.728Z,11.30
2023-04-20T12:43:08.598Z,11.40
2023-04-20T12:45:36.440Z,11.50
2023-04-20T12:48:04.577Z,11.50
2023-04-20T12:50:32.491Z,11.50
2023-04-20T12:53:00.468Z,11.50
2023-04-20T12:55:29.715Z,11.50
2023-04-20T12:57:57.546Z,11.40
2023-04-20T13:00:25.408Z,11.30
2023-04-20T13:02:53.526Z,11.40
2023-04-20T13:05:21.585Z,11.70
2023-04-20T13:07:49.364Z,12.10
2023-04-20T13:10:17.186Z,12.10
2023-04-20T13:12:46.314Z,12.40
2023-04-20T13:15:14.132Z,12.50
2023-04-20T13:17:42.000Z,12.40
2023-04-20T13:20:10.757Z,12.30
2023-04-20T13:22:50.414Z,12.30
2023-04-20T13:25:25.311Z,12.30
2023-04-20T13:27:54.949Z,12.30
2023-04-20T13:30:24.452Z,12.00
2023-04-20T13:32:52.669Z,12.00
2023-04-20T13:35:20.533Z,12.00
2023-04-20T13:37:48.421Z,11.90
2023-04-20T13:40:16.286Z,12.10
2023-04-20T13:42:44.096Z,12.20
2023-04-20T13:45:13.750Z,12.00
2023-04-20T13:47:41.902Z,11.90
2023-04-20T13:50:11.054Z,11.80
2023-04-20T13:52:38.903Z,11.90
2023-04-20T13:55:07.367Z,11.90
2023-04-20T13:57:35.244Z,12.00
2023-04-20T14:00:03.159Z,12.00
2023-04-20T14:02:33.705Z,12.00
2023-04-20T14:05:03.771Z,11.80
2023-04-20T14:07:32.096Z,11.70
2023-04-20T14:10:00.383Z,11.70
2023-04-20T14:12:28.477Z,11.80
2023-04-20T14:14:58.644Z,11.70
2023-04-20T14:17:26.623Z,11.80
2023-04-20T14:19:56.054Z,11.70
2023-04-20T14:22:23.851Z,11.70
2023-04-20T14:24:51.648Z,11.70
2023-04-20T14:27:19.504Z,11.70
2023-04-20T14:29:47.297Z,11.60
2023-04-20T14:32:15.123Z,11.60
2023-04-20T14:34:42.897Z,11.50
2023-04-20T14:37:12.083Z,11.50
2023-04-20T14:39:39.890Z,11.50
2023-04-20T14:42:08.238Z,11.60
2023-04-20T14:44:36.272Z,11.50
2023-04-20T14:47:04.131Z,11.50
2023-04-20T14:49:31.894Z,11.40
2023-04-20T14:51:59.721Z,11.60
2023-04-20T14:54:29.655Z,11.50
2023-04-20T14:56:58.272Z,11.50
2023-04-20T14:59:26.951Z,11.50
2023-04-20T15:02:02.181Z,11.50
2023-04-20T15:04:30.873Z,11.60
2023-04-20T15:06:58.826Z,11.50
2023-04-20T15:09:28.097Z,11.50
2023-04-20T15:11:56.648Z,11.50
2023-04-20T15:14:24.439Z,11.40
2023-04-20T15:16:53.191Z,11.50
2023-04-20T15:19:22.539Z,11.50
2023-04-20T15:21:50.486Z,11.40
2023-04-20T15:26:48.138Z,11.30
2023-04-20T15:29:15.952Z,11.30
2023-04-20T15:31:45.424Z,11.40
2023-04-20T15:34:15.338Z,11.30
2023-04-20T15:36:43.597Z,11.40
2023-04-20T15:39:12.364Z,11.40
2023-04-20T15:41:40.199Z,11.50
2023-04-20T15:44:09.433Z,11.50
2023-04-20T15:46:37.609Z,11.50
2023-04-20T15:49:05.511Z,11.40
2023-04-20T15:51:33.293Z,11.40
2023-04-20T15:54:01.703Z,11.30
2023-04-20T15:56:29.594Z,11.30
2023-04-20T15:58:57.405Z,11.30
2023-04-20T16:01:26.588Z,11.20
2023-04-20T16:03:54.603Z,11.30
2023-04-20T16:06:22.736Z,11.40
2023-04-20T16:08:53.158Z,11.50
2023-04-20T16:11:21.669Z,11.30
2023-04-20T16:13:49.602Z,11.30
2023-04-20T16:16:17.490Z,11.30
2023-04-20T16:18:46.721Z,11.30
2023-04-20T16:21:14.725Z,11.30
2023-04-20T16:23:42.520Z,11.40
2023-04-20T16:26:10.422Z,11.40
2023-04-20T16:28:38.430Z,11.40
2023-04-20T16:31:06.391Z,11.40
2023-04-20T16:33:37.717Z,11.30
2023-04-20T16:36:07.397Z,11.30
2023-04-20T16:38:35.292Z,11.30
2023-04-20T16:41:03.160Z,11.30
2023-04-20T16:43:31.056Z,11.30
2023-04-20T16:45:58.868Z,11.20
2023-04-20T16:48:26.778Z,11.00
2023-04-20T16:50:54.558Z,11.00
2023-04-20T16:53:23.661Z,11.00
2023-04-20T16:55:51.808Z,11.00
2023-04-20T16:58:19.602Z,11.00
2023-04-20T17:00:48.164Z,10.90
2023-04-20T17:03:16.128Z,10.90
2023-04-20T17:05:44.643Z,10.90
2023-04-20T17:08:12.434Z,10.90
2023-04-20T17:10:41.635Z,10.80
2023-04-20T17:13:09.500Z,10.90
2023-04-20T17:15:37.440Z,10.80
2023-04-20T17:18:06.822Z,10.70
2023-04-20T17:20:34.737Z,10.60
2023-04-20T17:23:02.587Z,10.50
2023-04-20T17:25:32.503Z,10.50
2023-04-20T17:28:02.690Z,10.50
2023-04-20T17:30:30.770Z,10.40
2023-04-20T17:33:00.613Z,10.40
2023-04-20T17:35:28.426Z,10.30
2023-04-20T17:37:56.247Z,10.30
2023-04-20T17:40:24.065Z,10.40
2023-04-20T17:42:51.867Z,10.30
2023-04-20T17:45:21.338Z,10.20
2023-04-20T17:47:49.219Z,10.20
2023-04-20T17:50:17.577Z,10.10
2023-04-20T17:52:45.387Z,10.10
2023-04-20T17:55:13.200Z,10.20
2023-04-20T17:57:41.037Z,10.10
2023-04-20T18:00:11.622Z,10.20
2023-04-20T18:02:41.096Z,10.10
2023-04-20T18:05:09.477Z,10.10
2023-04-20T18:07:37.280Z,9.90
2023-04-20T18:10:05.964Z,9.90
2023-04-20T18:12:33.724Z,10.00
2023-04-20T18:15:01.679Z,9.90
2023-04-20T18:17:29.508Z,9.80
2023-04-20T18:19:58.742Z,9.70
2023-04-20T18:22:26.826Z,9.70
2023-04-20T18:24:54.766Z,9.70
2023-04-20T18:27:22.544Z,9.70
2023-04-20T18:29:50.415Z,9.70
2023-04-20T18:32:18.220Z,9.80
2023-04-20T18:34:46.343Z,9.70
2023-04-20T18:37:15.613Z,9.60
2023-04-20T18:39:43.399Z,9.40
2023-04-20T18:42:11.330Z,9.30
2023-04-20T18:44:39.168Z,9.30
2023-04-20T18:47:07.079Z,9.30
2023-04-20T18:49:34.950Z,9.10
2023-04-20T18:52:02.942Z,9.20
2023-04-20T18:54:32.068Z,9.20
2023-04-20T18:56:59.863Z,9.00
2023-04-20T18:59:27.708Z,8.90
2023-04-20T19:01:55.611Z,8.60
2023-04-20T19:04:23.586Z,8.50
2023-04-20T19:06:51.676Z,8.40
2023-04-20T19:09:20.075Z,8.40
2023-04-20T19:11:50.547Z,8.20
2023-04-20T19:14:18.612Z,8.20
2023-04-20T19:16:46.656Z,8.10
2023-04-20T19:19:14.459Z,8.10
2023-04-20T19:21:42.816Z,8.00
2023-04-20T19:24:10.665Z,8.00
2023-04-20T19:26:38.436Z,7.90
2023-04-20T19:29:07.673Z,7.90
2023-04-20T19:31:37.782Z,7.80
2023-04-20T19:34:05.976Z,7.70
2023-04-20T19:36:34.417Z,7.50
2023-04-20T19:39:02.231Z,7.40
2023-04-20T19:41:30.061Z,7.30
2023-04-20T19:43:59.144Z,7.30
2023-04-20T19:46:28.436Z,7.30
2023-04-20T19:48:56.247Z,7.20
2023-04-20T19:51:25.451Z,7.20
2023-04-20T19:53:53.382Z,7.20
2023-04-20T19:56:21.347Z,7.10
2023-04-20T19:58:49.236Z,7.10
2023-04-20T20:01:17.107Z,7.10
2023-04-20T20:03:46.414Z,7.10
2023-04-20T20:06:14.376Z,7.10
2023-04-20T20:08:42.298Z,6.90
2023-04-20T20:11:10.143Z,6.80
2023-04-20T20:13:37.941Z,6.60
2023-04-20T20:16:06.481Z,6.70
2023-04-20T20:18:34.574Z,6.70
2023-04-20T20:21:04.098Z,6.60
2023-04-20T20:23:31.913Z,6.60
2023-04-20T20:25:59.769Z,6.70
2023-04-20T20:28:27.570Z,6.50
2023-04-20T20:30:55.490Z,6.50
2023-04-20T20:33:23.374Z,6.50
2023-04-20T20:35:51.194Z,6.40
2023-04-20T20:38:20.910Z,6.30
2023-04-20T20:40:50.441Z,6.40
2023-04-20T20:43:18.887Z,6.30
2023-04-20T20:45:47.517Z,6.20
2023-04-20T20:48:15.592Z,6.10
2023-04-20T20:50:43.436Z,6.00
2023-04-20T20:53:11.382Z,5.70
2023-04-20T20:55:40.559Z,5.80
2023-04-20T20:58:08.356Z,5.90
2023-04-20T21:00:36.289Z,6.00
2023-04-20T21:03:04.303Z,5.80
2023-04-20T21:05:34.374Z,5.80
2023-04-20T21:08:03.478Z,5.80
2023-04-20T21:10:31.325Z,5.80
2023-04-20T21:13:00.472Z,5.80
2023-04-20T21:15:28.382Z,5.70
2023-04-20T21:17:56.218Z,5.70
2023-04-20T21:20:24.023Z,5.70
2023-04-20T21:22:51.863Z,5.70
2023-04-20T21:25:19.713Z,5.50
2023-04-20T21:27:47.785Z,5.50
2023-04-20T21:30:17.125Z,5.50
2023-04-20T21:32:44.924Z,5.30
2023-04-20T21:35:12.784Z,5.30
2023-04-20T21:37:40.642Z,5.10
2023-04-20T21:40:09.861Z,5.20
2023-04-20T21:42:37.636Z,5.00
2023-04-20T21:45:05.920Z,4.80
2023-04-20T21:47:35.075Z,5.00
2023-04-20T21:50:03.293Z,5.20
2023-04-20T21:52:31.098Z,5.10
2023-04-20T21:54:58.899Z,5.10
2023-04-20T21:57:26.724Z,5.10
2023-04-20T21:59:54.526Z,5.00
2023-04-20T22:02:22.403Z,4.70
2023-04-20T22:04:51.703Z,4.80
2023-04-20T22:07:20.756Z,4.80
2023-04-20T22:09:48.846Z,4.70
2023-04-20T22:12:18.115Z,4.50
2023-04-20T22:14:47.378Z,4.30
2023-04-20T22:17:15.893Z,4.50
2023-04-20T22:19:43.685Z,4.70
2023-04-20T22:22:12.835Z,5.00
2023-04-20T22:24:40.580Z,4.80
2023-04-20T22:27:08.376Z,4.60
2023-04-20T22:29:36.457Z,4.50
2023-04-20T22:32:04.253Z,4.30
2023-04-20T22:34:32.057Z,4.40
2023-04-20T22:36:59.919Z,4.50
2023-04-20T22:39:29.001Z,4.50
2023-04-20T22:41:57.022Z,4.60
2023-04-20T22:44:24.892Z,4.50
2023-04-20T22:46:52.821Z,4.60
2023-04-20T22:49:21.042Z,4.50
2023-04-20T22:51:48.823Z,4.30
2023-04-20T22:54:16.725Z,4.50
2023-04-20T22:56:45.835Z,4.60
2023-04-20T22:59:13.755Z,4.50
2023-04-20T23:01:41.657Z,4.60
2023-04-20T23:04:09.632Z,4.60
2023-04-20T23:06:37.849Z,4.40
2023-04-20T23:09:07.709Z,4.30
2023-04-20T23:11:38.804Z,4.30
2023-04-20T23:14:08.425Z,4.40
2023-04-20T23:16:38.342Z,4.40
2023-04-20T23:19:06.250Z,4.30
2023-04-20T23:21:34.059Z,4.20
2023-04-20T23:24:01.829Z,4.10
2023-04-20T23:26:29.664Z,4.20
2023-04-20T23:28:57.434Z,4.20
2023-04-20T23:31:27.118Z,4.10
2023-04-20T23:33:55.021Z,4.00
2023-04-20T23:36:22.806Z,4.10
2023-04-20T23:38:50.677Z,4.00
2023-04-20T23:41:18.503Z,4.20
2023-04-20T23:43:46.323Z,4.10
2023-04-20T23:46:14.445Z,3.80
2023-04-20T23:48:43.818Z,3.90
2023-04-20T23:51:11.801Z,4.00
2023-04-20T23:53:39.946Z,3.90
2023-04-20T23:56:08.364Z,4.00
2023-04-20T23:58:36.343Z,4.00
